European Seaway — MPDG3 — position and weather

sailwx.info

Track history (hours):
 
Tides and Currents Weather Stations Pressure Air Temp Water Temp Dewpoint Dewpoint Depression Visibility Wind Speed Wind Dir Waves Ship Positions

European Seaway

Operator: P & O Ferries

Last reported at 2017-Mar-01 17:33 UTC. Time now 2017-Mar-01 17:51 UTC.
Position N 50°58' E 001°51'.

Length 179 m; draft 6.2 m.

Type: Passenger vessel. MMSI: 232001040.

Date/timePositionNaut miles runAvg speedWind from/ knotsBaromVisibWave heightAir tempDewpointWater temp
2017-Mar-01 17:33N 50°58' E 001°51'0 0.3
2017-Mar-01 16:33N 50°58' E 001°51'1615.8
2017-Mar-01 15:33N 51°04' E 001°27'6 5.9
2017-Mar-01 14:33N 51°07' E 001°20'6 5.9
2017-Mar-01 13:34N 51°06' E 001°29'1615.7
2017-Mar-01 12:34N 50°58' E 001°51'1 0.6
2017-Mar-01 11:33N 50°58' E 001°52'1716.6
2017-Mar-01 10:33N 51°04' E 001°27'5 5.5
2017-Mar-01 09:33N 51°07' E 001°20'10 9.8
2017-Mar-01 08:33N 51°03' E 001°34'1212.1
2017-Mar-01 07:33N 50°58' E 001°52'3 2.8
2017-Mar-01 06:34N 50°58' E 001°47'1817.7
2017-Mar-01 05:33N 51°06' E 001°22'2 1.8
2017-Mar-01 04:33N 51°07' E 001°20'7 7.3
2017-Mar-01 03:33N 51°05' E 001°31'1414.5
2017-Mar-01 02:33N 50°58' E 001°51'0 0.2
2017-Mar-01 01:33N 50°58' E 001°52'0 0.0
2017-Mar-01 00:33N 50°58' E 001°52'0 0.0
2017-Feb-28 23:33N 50°58' E 001°52'0 0.0
2017-Feb-28 22:33N 50°58' E 001°52'0 0.0
2017-Feb-28 21:33N 50°58' E 001°52'1111.2
2017-Feb-28 20:33N 50°60' E 001°34'1211.6
2017-Feb-28 19:33N 51°07' E 001°20'3 2.6
2017-Feb-28 18:34N 51°07' E 001°24'1817.6
2017-Feb-28 17:34N 50°58' E 001°49'2 1.9
2017-Feb-28 16:33N 50°58' E 001°52'1414.1
2017-Feb-28 15:33N 51°03' E 001°31'8 8.1
2017-Feb-28 14:33N 51°07' E 001°20'8 8.3
2017-Feb-28 13:33N 51°06' E 001°33'1413.9
2017-Feb-28 12:33N 50°58' E 001°52'1 1.4
2017-Feb-28 11:34N 50°58' E 001°49'1717.0
2017-Feb-28 10:33N 51°05' E 001°25'4 3.1
2017-Feb-28 09:22N 51°07' E 001°20'1113.9
2017-Feb-28 08:33N 51°02' E 001°36'1110.8
2017-Feb-28 07:33N 50°58' E 001°52'3 3.3
2017-Feb-28 06:33N 50°58' E 001°46'1717.1
2017-Feb-28 05:33N 51°06' E 001°23'2 1.8
2017-Feb-28 04:33N 51°07' E 001°20'1211.9
2017-Feb-28 03:33N 51°03' E 001°37'1010.1
2017-Feb-28 02:33N 50°58' E 001°52'0 0.0
2017-Feb-28 01:33N 50°58' E 001°52'0 0.0
2017-Feb-28 00:33N 50°58' E 001°52'0 0.0
2017-Feb-27 23:34N 50°58' E 001°52'0 0.0
2017-Feb-27 22:34N 50°58' E 001°52'0 0.0
2017-Feb-27 21:33N 50°58' E 001°52'3 2.7
2017-Feb-27 20:33N 50°58' E 001°47'1716.9
2017-Feb-27 19:33N 51°06' E 001°23'3 2.7
2017-Feb-27 18:32N 51°07' E 001°20'1313.9
2017-Feb-27 17:34N 51°02' E 001°40'8 8.4
2017-Feb-27 16:33N 50°58' E 001°52'8 7.8
2017-Feb-27 15:34N 50°59' E 001°39'11 5.6
2017-Feb-27 13:34N 51°06' E 001°27'1616.1
2017-Feb-27 12:33N 50°58' E 001°49'2 1.8
2017-Feb-27 11:33N 50°58' E 001°52'1515.5
2017-Feb-27 10:34N 51°04' E 001°29'7 5.9
2017-Feb-27 09:26N 51°07' E 001°20'8 9.1
2017-Feb-27 08:34N 51°05' E 001°32'1414.0
2017-Feb-27 07:33N 50°58' E 001°52'3 2.7
2017-Feb-27 06:33N 50°58' E 001°47'1717.3
2017-Feb-27 05:33N 51°06' E 001°23'2 2.2
2017-Feb-27 04:33N 51°07' E 001°20'1110.9
2017-Feb-27 03:33N 51°03' E 001°36'1110.9
2017-Feb-27 02:34N 50°58' E 001°51'0 0.2
2017-Feb-27 01:33N 50°58' E 001°52'0 0.0
2017-Feb-27 00:33N 50°58' E 001°52'0 0.0
2017-Feb-26 23:33N 50°58' E 001°52'0 0.0
2017-Feb-26 22:33N 50°58' E 001°52'0 0.0
2017-Feb-26 21:33N 50°58' E 001°52'0 0.1
2017-Feb-26 20:34N 50°58' E 001°52'1414.5
2017-Feb-26 19:34N 51°02' E 001°29'8 7.3
2017-Feb-26 18:29N 51°07' E 001°20'1213.0
2017-Feb-26 17:34N 51°02' E 001°37'9 9.3
2017-Feb-26 16:33N 50°58' E 001°51'6 6.1
2017-Feb-26 15:33N 50°59' E 001°41'1615.8
2017-Feb-26 14:33N 51°07' E 001°20'4 3.6
2017-Feb-26 13:33N 51°07' E 001°26'1716.6
2017-Feb-26 12:33N 50°58' E 001°48'2 1.6
2017-Feb-26 11:34N 50°58' E 001°51'1515.4
2017-Feb-26 10:33N 51°03' E 001°28'6 6.5
2017-Feb-26 09:33N 51°07' E 001°20'9 8.9
2017-Feb-26 08:33N 51°05' E 001°33'1312.7
2017-Feb-26 07:33N 50°58' E 001°51'0 0.0
2017-Feb-26 06:34N 50°58' E 001°51'0 0.0
2017-Feb-26 05:34N 50°58' E 001°51'0 0.0
2017-Feb-26 04:34N 50°58' E 001°51'0 0.0
2017-Feb-26 03:34N 50°58' E 001°51'0 0.0
2017-Feb-26 02:33N 50°58' E 001°51'0 0.0
2017-Feb-26 01:34N 50°58' E 001°51'0 0.0
2017-Feb-26 00:34N 50°58' E 001°51'0 0.0
2017-Feb-25 23:33N 50°58' E 001°51'0 0.0
2017-Feb-25 22:34N 50°58' E 001°51'0 0.0
2017-Feb-25 21:34N 50°58' E 001°51'3 2.8
2017-Feb-25 20:33N 50°58' E 001°47'1818.4
2017-Feb-25 19:34N 51°07' E 001°21'4 4.4
2017-Feb-25 18:34N 51°06' E 001°28'1616.4
2017-Feb-25 17:33N 50°58' E 001°51'3 2.7
2017-Feb-25 16:33N 50°58' E 001°47'1817.9
2017-Feb-25 15:33N 51°07' E 001°22'1 1.1
2017-Feb-25 14:33N 51°07' E 001°20'8 8.3
2017-Feb-25 13:33N 51°04' E 001°32'1313.3
2017-Feb-25 12:34N 50°58' E 001°51'3 2.6
2017-Feb-25 11:34N 50°58' E 001°47'1918.6
2017-Feb-25 10:34N 51°07' E 001°21'1 0.7
2017-Feb-25 09:33N 51°07' E 001°20'1111.2
2017-Feb-25 08:34N 51°02' E 001°36'1110.8
2017-Feb-25 07:33N 50°58' E 001°52'5 4.6
2017-Feb-25 06:33N 50°58' E 001°44'1817.5
2017-Feb-25 05:33N 51°07' E 001°21'0 0.3
2017-Feb-25 04:33N 51°07' E 001°20'0 0.2
2017-Feb-25 03:33N 51°07' E 001°20'1716.8
2017-Feb-25 02:33N 50°59' E 001°44'5 5.2
2017-Feb-25 01:33N 50°58' E 001°52'0 0.0
2017-Feb-25 00:33N 50°58' E 001°52'0 0.0
2017-Feb-24 23:33N 50°58' E 001°52'0 0.0
2017-Feb-24 22:33N 50°58' E 001°52'0 0.0
2017-Feb-24 21:33N 50°58' E 001°52'1 0.6
2017-Feb-24 20:33N 50°58' E 001°51'1717.3
2017-Feb-24 19:33N 51°05' E 001°25'4 4.2
2017-Feb-24 18:33N 51°07' E 001°20'1313.1
2017-Feb-24 17:34N 51°01' E 001°38'9 8.6
2017-Feb-24 16:33N 50°58' E 001°51'8 8.4
2017-Feb-24 15:34N 50°59' E 001°38'1414.1
2017-Feb-24 14:33N 51°07' E 001°20'3 2.6
2017-Feb-24 13:33N 51°07' E 001°24'1817.7
2017-Feb-24 12:33N 50°58' E 001°49'1 1.5
2017-Feb-24 11:33N 50°58' E 001°51'1413.6
2017-Feb-24 10:33N 51°02' E 001°31'8 8.3
2017-Feb-24 09:33N 51°07' E 001°20'10 9.5
2017-Feb-24 08:34N 51°05' E 001°35'1212.3
2017-Feb-24 07:33N 50°58' E 001°51'2 2.5
2017-Feb-24 06:33N 50°58' E 001°47'1817.8
2017-Feb-24 05:34N 51°07' E 001°22'1 1.4
2017-Feb-24 04:27N 51°07' E 001°20'1314.0
2017-Feb-24 03:33N 51°02' E 001°38'9 9.3
2017-Feb-24 02:33N 50°58' E 001°52'0 0.0
2017-Feb-24 01:33N 50°58' E 001°52'0 0.3
2017-Feb-24 00:33N 50°58' E 001°52'0 0.0
2017-Feb-23 23:33N 50°58' E 001°52'0 0.0
2017-Feb-23 22:33N 50°58' E 001°52'0 0.3
2017-Feb-23 21:33N 50°58' E 001°52'1414.1
2017-Feb-23 20:33N 51°03' E 001°31'6 3.2
2017-Feb-23 18:33N 51°07' E 001°23'1616.2
2017-Feb-23 17:33N 50°58' E 001°45'4 4.3
2017-Feb-23 16:33N 50°58' E 001°52'8 8.3
2017-Feb-23 15:33N 50°59' E 001°39'14 7.2
2017-Feb-23 13:33N 51°07' E 001°20'5 4.5
2017-Feb-23 12:33N 51°08' E 001°27'3 2.6
2017-Feb-23 11:34N 51°06' E 001°30'1514.9
2017-Feb-23 10:33N 50°58' E 001°50'1 0.8
2017-Feb-23 09:33N 50°58' E 001°52'1211.8
2017-Feb-23 08:33N 50°60' E 001°33'1111.2
2017-Feb-23 07:33N 51°07' E 001°20'0 0.1
2017-Feb-23 06:33N 51°07' E 001°20'1716.8
2017-Feb-23 05:33N 50°59' E 001°43'5 5.3
2017-Feb-23 04:33N 50°58' E 001°52'4 4.4
2017-Feb-23 03:34N 50°58' E 001°45'1818.0
2017-Feb-23 02:33N 51°07' E 001°20'0 0.1
2017-Feb-23 01:33N 51°07' E 001°20'8 8.2
2017-Feb-23 00:33N 51°04' E 001°32'1413.6
2017-Feb-22 23:34N 50°58' E 001°52'0 0.0
2017-Feb-22 22:34N 50°58' E 001°52'3 2.9
2017-Feb-22 21:33N 50°58' E 001°47'1818.1
2017-Feb-22 20:33N 51°07' E 001°22'1 1.2
2017-Feb-22 19:31N 51°07' E 001°20'1010.4
2017-Feb-22 18:33N 51°03' E 001°35'1211.9
2017-Feb-22 17:33N 50°58' E 001°52'2 2.1
2017-Feb-22 16:33N 50°58' E 001°48'1817.9
2017-Feb-22 15:33N 51°06' E 001°23'2 2.1
2017-Feb-22 14:33N 51°07' E 001°20'1212.5
2017-Feb-22 13:33N 51°02' E 001°38'10 9.6
2017-Feb-22 12:33N 50°58' E 001°52'6 6.0
2017-Feb-22 11:33N 50°58' E 001°42'16 8.0
2017-Feb-22 09:33N 51°07' E 001°21'1616.3
2017-Feb-22 08:33N 50°59' E 001°44'5 5.1
2017-Feb-22 07:33N 50°58' E 001°52'6 5.6
2017-Feb-22 06:33N 50°58' E 001°43'1716.8
2017-Feb-22 05:33N 51°07' E 001°20'0 0.2
2017-Feb-22 04:33N 51°07' E 001°20'1010.1
2017-Feb-22 03:33N 51°03' E 001°35'1211.8
2017-Feb-22 02:33N 50°58' E 001°52'0 0.1
2017-Feb-22 01:33N 50°58' E 001°52'0 0.0
2017-Feb-22 00:33N 50°58' E 001°52'0 0.0
2017-Feb-21 23:33N 50°58' E 001°52'0 0.0
2017-Feb-21 22:33N 50°58' E 001°52'0 0.0
2017-Feb-21 21:33N 50°58' E 001°52'2 1.6
2017-Feb-21 20:33N 50°58' E 001°49'1918.8
2017-Feb-21 19:34N 51°07' E 001°22'2 1.6
2017-Feb-21 18:33N 51°07' E 001°20'1313.2
2017-Feb-21 17:34N 51°01' E 001°38'9 8.9
2017-Feb-21 16:33N 50°58' E 001°52'6 6.4
2017-Feb-21 15:34N 50°59' E 001°42'1616.0
2017-Feb-21 14:33N 51°07' E 001°20'1 1.2
2017-Feb-21 13:33N 51°07' E 001°22'1918.6
2017-Feb-21 12:34N 50°58' E 001°48'2 2.4
2017-Feb-21 11:32N 50°58' E 001°52'1413.9
2017-Feb-21 10:33N 51°03' E 001°31'9 8.6
2017-Feb-21 09:33N 51°07' E 001°20'8 8.4
2017-Feb-21 08:33N 51°03' E 001°32'1413.5
2017-Feb-21 07:33N 50°58' E 001°52'3 3.4
2017-Feb-21 06:33N 50°58' E 001°46'1717.3
2017-Feb-21 05:33N 51°07' E 001°22'2 1.7
2017-Feb-21 04:33N 51°07' E 001°20'1010.3
2017-Feb-21 03:33N 51°03' E 001°35'1211.7
2017-Feb-21 02:34N 50°58' E 001°52'0 0.0
2017-Feb-21 01:33N 50°58' E 001°52'0 0.0
2017-Feb-21 00:34N 50°58' E 001°52'0 0.0
2017-Feb-20 23:33N 50°58' E 001°52'0 0.0
2017-Feb-20 22:33N 50°58' E 001°52'0 0.0
2017-Feb-20 21:34N 50°58' E 001°52'0 0.4
2017-Feb-20 20:33N 50°58' E 001°51'1717.5
2017-Feb-20 19:34N 51°06' E 001°26'4 4.1
2017-Feb-20 18:33N 51°07' E 001°20'1212.1
2017-Feb-20 17:33N 51°03' E 001°38'10 9.6
2017-Feb-20 16:33N 50°58' E 001°51'5 5.1
2017-Feb-20 15:33N 50°58' E 001°43'1717.1
2017-Feb-20 14:33N 51°07' E 001°20'2 1.9
2017-Feb-20 13:33N 51°07' E 001°23'1918.8
2017-Feb-20 12:33N 50°58' E 001°50'1 0.9
2017-Feb-20 11:33N 50°58' E 001°51'1616.1
2017-Feb-20 10:33N 51°04' E 001°27'6 5.5
2017-Feb-20 09:33N 51°07' E 001°20'1010.5
2017-Feb-20 08:33N 51°03' E 001°36'1111.5
2017-Feb-20 07:33N 50°58' E 001°52'0 0.0
2017-Feb-20 06:33N 50°58' E 001°52'0 0.0
2017-Feb-20 05:33N 50°58' E 001°52'0 0.0
2017-Feb-20 04:33N 50°58' E 001°52'0 0.0
2017-Feb-20 03:33N 50°58' E 001°52'0 0.0
2017-Feb-20 02:33N 50°58' E 001°52'0 0.0
2017-Feb-20 01:33N 50°58' E 001°52'0 0.0
2017-Feb-20 00:33N 50°58' E 001°52'0 0.0
2017-Feb-19 23:33N 50°58' E 001°52'0 0.0
2017-Feb-19 22:33N 50°58' E 001°52'0 0.0
2017-Feb-19 21:33N 50°58' E 001°52'0 0.0
2017-Feb-19 20:33N 50°58' E 001°52'0 0.0
2017-Feb-19 19:33N 50°58' E 001°52'0 0.0
2017-Feb-19 18:33N 50°58' E 001°52'  
Track history (hours):
 
Tides and Currents Weather Stations Pressure Air Temp Water Temp Dewpoint Dewpoint Depression Visibility Wind Speed Wind Dir Waves Ship Positions

European Seaway

Operator: P & O Ferries

Last reported at 2017-Mar-01 17:33 UTC. Time now 2017-Mar-01 17:51 UTC.
Position N 50°58' E 001°51'.

Length 179 m; draft 6.2 m.

Type: Passenger vessel. MMSI: 232001040.

Date/timePositionNaut miles runAvg speedWind from/ knotsBaromVisibWave heightAir tempDewpointWater temp
2017-Mar-01 17:33N 50°58' E 001°51'0 0.3
2017-Mar-01 16:33N 50°58' E 001°51'1615.8
2017-Mar-01 15:33N 51°04' E 001°27'6 5.9
2017-Mar-01 14:33N 51°07' E 001°20'6 5.9
2017-Mar-01 13:34N 51°06' E 001°29'1615.7
2017-Mar-01 12:34N 50°58' E 001°51'1 0.6
2017-Mar-01 11:33N 50°58' E 001°52'1716.6
2017-Mar-01 10:33N 51°04' E 001°27'5 5.5
2017-Mar-01 09:33N 51°07' E 001°20'10 9.8
2017-Mar-01 08:33N 51°03' E 001°34'1212.1
2017-Mar-01 07:33N 50°58' E 001°52'3 2.8
2017-Mar-01 06:34N 50°58' E 001°47'1817.7
2017-Mar-01 05:33N 51°06' E 001°22'2 1.8
2017-Mar-01 04:33N 51°07' E 001°20'7 7.3
2017-Mar-01 03:33N 51°05' E 001°31'1414.5
2017-Mar-01 02:33N 50°58' E 001°51'0 0.2
2017-Mar-01 01:33N 50°58' E 001°52'0 0.0
2017-Mar-01 00:33N 50°58' E 001°52'0 0.0
2017-Feb-28 23:33N 50°58' E 001°52'0 0.0
2017-Feb-28 22:33N 50°58' E 001°52'0 0.0
2017-Feb-28 21:33N 50°58' E 001°52'1111.2
2017-Feb-28 20:33N 50°60' E 001°34'1211.6
2017-Feb-28 19:33N 51°07' E 001°20'3 2.6
2017-Feb-28 18:34N 51°07' E 001°24'1817.6
2017-Feb-28 17:34N 50°58' E 001°49'2 1.9
2017-Feb-28 16:33N 50°58' E 001°52'1414.1
2017-Feb-28 15:33N 51°03' E 001°31'8 8.1
2017-Feb-28 14:33N 51°07' E 001°20'8 8.3
2017-Feb-28 13:33N 51°06' E 001°33'1413.9
2017-Feb-28 12:33N 50°58' E 001°52'1 1.4
2017-Feb-28 11:34N 50°58' E 001°49'1717.0
2017-Feb-28 10:33N 51°05' E 001°25'4 3.1
2017-Feb-28 09:22N 51°07' E 001°20'1113.9
2017-Feb-28 08:33N 51°02' E 001°36'1110.8
2017-Feb-28 07:33N 50°58' E 001°52'3 3.3
2017-Feb-28 06:33N 50°58' E 001°46'1717.1
2017-Feb-28 05:33N 51°06' E 001°23'2 1.8
2017-Feb-28 04:33N 51°07' E 001°20'1211.9
2017-Feb-28 03:33N 51°03' E 001°37'1010.1
2017-Feb-28 02:33N 50°58' E 001°52'0 0.0
2017-Feb-28 01:33N 50°58' E 001°52'0 0.0
2017-Feb-28 00:33N 50°58' E 001°52'0 0.0
2017-Feb-27 23:34N 50°58' E 001°52'0 0.0
2017-Feb-27 22:34N 50°58' E 001°52'0 0.0
2017-Feb-27 21:33N 50°58' E 001°52'3 2.7
2017-Feb-27 20:33N 50°58' E 001°47'1716.9
2017-Feb-27 19:33N 51°06' E 001°23'3 2.7
2017-Feb-27 18:32N 51°07' E 001°20'1313.9
2017-Feb-27 17:34N 51°02' E 001°40'8 8.4
2017-Feb-27 16:33N 50°58' E 001°52'8 7.8
2017-Feb-27 15:34N 50°59' E 001°39'11 5.6
2017-Feb-27 13:34N 51°06' E 001°27'1616.1
2017-Feb-27 12:33N 50°58' E 001°49'2 1.8
2017-Feb-27 11:33N 50°58' E 001°52'1515.5
2017-Feb-27 10:34N 51°04' E 001°29'7 5.9
2017-Feb-27 09:26N 51°07' E 001°20'8 9.1
2017-Feb-27 08:34N 51°05' E 001°32'1414.0
2017-Feb-27 07:33N 50°58' E 001°52'3 2.7
2017-Feb-27 06:33N 50°58' E 001°47'1717.3
2017-Feb-27 05:33N 51°06' E 001°23'2 2.2
2017-Feb-27 04:33N 51°07' E 001°20'1110.9
2017-Feb-27 03:33N 51°03' E 001°36'1110.9
2017-Feb-27 02:34N 50°58' E 001°51'0 0.2
2017-Feb-27 01:33N 50°58' E 001°52'0 0.0
2017-Feb-27 00:33N 50°58' E 001°52'0 0.0
2017-Feb-26 23:33N 50°58' E 001°52'0 0.0
2017-Feb-26 22:33N 50°58' E 001°52'0 0.0
2017-Feb-26 21:33N 50°58' E 001°52'0 0.1
2017-Feb-26 20:34N 50°58' E 001°52'1414.5
2017-Feb-26 19:34N 51°02' E 001°29'8 7.3
2017-Feb-26 18:29N 51°07' E 001°20'1213.0
2017-Feb-26 17:34N 51°02' E 001°37'9 9.3
2017-Feb-26 16:33N 50°58' E 001°51'6 6.1
2017-Feb-26 15:33N 50°59' E 001°41'1615.8
2017-Feb-26 14:33N 51°07' E 001°20'4 3.6
2017-Feb-26 13:33N 51°07' E 001°26'1716.6
2017-Feb-26 12:33N 50°58' E 001°48'2 1.6
2017-Feb-26 11:34N 50°58' E 001°51'1515.4
2017-Feb-26 10:33N 51°03' E 001°28'6 6.5
2017-Feb-26 09:33N 51°07' E 001°20'9 8.9
2017-Feb-26 08:33N 51°05' E 001°33'1312.7
2017-Feb-26 07:33N 50°58' E 001°51'0 0.0
2017-Feb-26 06:34N 50°58' E 001°51'0 0.0
2017-Feb-26 05:34N 50°58' E 001°51'0 0.0
2017-Feb-26 04:34N 50°58' E 001°51'0 0.0
2017-Feb-26 03:34N 50°58' E 001°51'0 0.0
2017-Feb-26 02:33N 50°58' E 001°51'0 0.0
2017-Feb-26 01:34N 50°58' E 001°51'0 0.0
2017-Feb-26 00:34N 50°58' E 001°51'0 0.0
2017-Feb-25 23:33N 50°58' E 001°51'0 0.0
2017-Feb-25 22:34N 50°58' E 001°51'0 0.0
2017-Feb-25 21:34N 50°58' E 001°51'3 2.8
2017-Feb-25 20:33N 50°58' E 001°47'1818.4
2017-Feb-25 19:34N 51°07' E 001°21'4 4.4
2017-Feb-25 18:34N 51°06' E 001°28'1616.4
2017-Feb-25 17:33N 50°58' E 001°51'3 2.7
2017-Feb-25 16:33N 50°58' E 001°47'1817.9
2017-Feb-25 15:33N 51°07' E 001°22'1 1.1
2017-Feb-25 14:33N 51°07' E 001°20'8 8.3
2017-Feb-25 13:33N 51°04' E 001°32'1313.3
2017-Feb-25 12:34N 50°58' E 001°51'3 2.6
2017-Feb-25 11:34N 50°58' E 001°47'1918.6
2017-Feb-25 10:34N 51°07' E 001°21'1 0.7
2017-Feb-25 09:33N 51°07' E 001°20'1111.2
2017-Feb-25 08:34N 51°02' E 001°36'1110.8
2017-Feb-25 07:33N 50°58' E 001°52'5 4.6
2017-Feb-25 06:33N 50°58' E 001°44'1817.5
2017-Feb-25 05:33N 51°07' E 001°21'0 0.3
2017-Feb-25 04:33N 51°07' E 001°20'0 0.2
2017-Feb-25 03:33N 51°07' E 001°20'1716.8
2017-Feb-25 02:33N 50°59' E 001°44'5 5.2
2017-Feb-25 01:33N 50°58' E 001°52'0 0.0
2017-Feb-25 00:33N 50°58' E 001°52'0 0.0
2017-Feb-24 23:33N 50°58' E 001°52'0 0.0
2017-Feb-24 22:33N 50°58' E 001°52'0 0.0
2017-Feb-24 21:33N 50°58' E 001°52'1 0.6
2017-Feb-24 20:33N 50°58' E 001°51'1717.3
2017-Feb-24 19:33N 51°05' E 001°25'4 4.2
2017-Feb-24 18:33N 51°07' E 001°20'1313.1
2017-Feb-24 17:34N 51°01' E 001°38'9 8.6
2017-Feb-24 16:33N 50°58' E 001°51'8 8.4
2017-Feb-24 15:34N 50°59' E 001°38'1414.1
2017-Feb-24 14:33N 51°07' E 001°20'3 2.6
2017-Feb-24 13:33N 51°07' E 001°24'1817.7
2017-Feb-24 12:33N 50°58' E 001°49'1 1.5
2017-Feb-24 11:33N 50°58' E 001°51'1413.6
2017-Feb-24 10:33N 51°02' E 001°31'8 8.3
2017-Feb-24 09:33N 51°07' E 001°20'10 9.5
2017-Feb-24 08:34N 51°05' E 001°35'1212.3
2017-Feb-24 07:33N 50°58' E 001°51'2 2.5
2017-Feb-24 06:33N 50°58' E 001°47'1817.8
2017-Feb-24 05:34N 51°07' E 001°22'1 1.4
2017-Feb-24 04:27N 51°07' E 001°20'1314.0
2017-Feb-24 03:33N 51°02' E 001°38'9 9.3
2017-Feb-24 02:33N 50°58' E 001°52'0 0.0
2017-Feb-24 01:33N 50°58' E 001°52'0 0.3
2017-Feb-24 00:33N 50°58' E 001°52'0 0.0
2017-Feb-23 23:33N 50°58' E 001°52'0 0.0
2017-Feb-23 22:33N 50°58' E 001°52'0 0.3
2017-Feb-23 21:33N 50°58' E 001°52'1414.1
2017-Feb-23 20:33N 51°03' E 001°31'6 3.2
2017-Feb-23 18:33N 51°07' E 001°23'1616.2
2017-Feb-23 17:33N 50°58' E 001°45'4 4.3
2017-Feb-23 16:33N 50°58' E 001°52'8 8.3
2017-Feb-23 15:33N 50°59' E 001°39'14 7.2
2017-Feb-23 13:33N 51°07' E 001°20'5 4.5
2017-Feb-23 12:33N 51°08' E 001°27'3 2.6
2017-Feb-23 11:34N 51°06' E 001°30'1514.9
2017-Feb-23 10:33N 50°58' E 001°50'1 0.8
2017-Feb-23 09:33N 50°58' E 001°52'1211.8
2017-Feb-23 08:33N 50°60' E 001°33'1111.2
2017-Feb-23 07:33N 51°07' E 001°20'0 0.1
2017-Feb-23 06:33N 51°07' E 001°20'1716.8
2017-Feb-23 05:33N 50°59' E 001°43'5 5.3
2017-Feb-23 04:33N 50°58' E 001°52'4 4.4
2017-Feb-23 03:34N 50°58' E 001°45'1818.0
2017-Feb-23 02:33N 51°07' E 001°20'0 0.1
2017-Feb-23 01:33N 51°07' E 001°20'8 8.2
2017-Feb-23 00:33N 51°04' E 001°32'1413.6
2017-Feb-22 23:34N 50°58' E 001°52'0 0.0
2017-Feb-22 22:34N 50°58' E 001°52'3 2.9
2017-Feb-22 21:33N 50°58' E 001°47'1818.1
2017-Feb-22 20:33N 51°07' E 001°22'1 1.2
2017-Feb-22 19:31N 51°07' E 001°20'1010.4
2017-Feb-22 18:33N 51°03' E 001°35'1211.9
2017-Feb-22 17:33N 50°58' E 001°52'2 2.1
2017-Feb-22 16:33N 50°58' E 001°48'1817.9
2017-Feb-22 15:33N 51°06' E 001°23'2 2.1
2017-Feb-22 14:33N 51°07' E 001°20'1212.5
2017-Feb-22 13:33N 51°02' E 001°38'10 9.6
2017-Feb-22 12:33N 50°58' E 001°52'6 6.0
2017-Feb-22 11:33N 50°58' E 001°42'16 8.0
2017-Feb-22 09:33N 51°07' E 001°21'1616.3
2017-Feb-22 08:33N 50°59' E 001°44'5 5.1
2017-Feb-22 07:33N 50°58' E 001°52'6 5.6
2017-Feb-22 06:33N 50°58' E 001°43'1716.8
2017-Feb-22 05:33N 51°07' E 001°20'0 0.2
2017-Feb-22 04:33N 51°07' E 001°20'1010.1
2017-Feb-22 03:33N 51°03' E 001°35'1211.8
2017-Feb-22 02:33N 50°58' E 001°52'0 0.1
2017-Feb-22 01:33N 50°58' E 001°52'0 0.0
2017-Feb-22 00:33N 50°58' E 001°52'0 0.0
2017-Feb-21 23:33N 50°58' E 001°52'0 0.0
2017-Feb-21 22:33N 50°58' E 001°52'0 0.0
2017-Feb-21 21:33N 50°58' E 001°52'2 1.6
2017-Feb-21 20:33N 50°58' E 001°49'1918.8
2017-Feb-21 19:34N 51°07' E 001°22'2 1.6
2017-Feb-21 18:33N 51°07' E 001°20'1313.2
2017-Feb-21 17:34N 51°01' E 001°38'9 8.9
2017-Feb-21 16:33N 50°58' E 001°52'6 6.4
2017-Feb-21 15:34N 50°59' E 001°42'1616.0
2017-Feb-21 14:33N 51°07' E 001°20'1 1.2
2017-Feb-21 13:33N 51°07' E 001°22'1918.6
2017-Feb-21 12:34N 50°58' E 001°48'2 2.4
2017-Feb-21 11:32N 50°58' E 001°52'1413.9
2017-Feb-21 10:33N 51°03' E 001°31'9 8.6
2017-Feb-21 09:33N 51°07' E 001°20'8 8.4
2017-Feb-21 08:33N 51°03' E 001°32'1413.5
2017-Feb-21 07:33N 50°58' E 001°52'3 3.4
2017-Feb-21 06:33N 50°58' E 001°46'1717.3
2017-Feb-21 05:33N 51°07' E 001°22'2 1.7
2017-Feb-21 04:33N 51°07' E 001°20'1010.3
2017-Feb-21 03:33N 51°03' E 001°35'1211.7
2017-Feb-21 02:34N 50°58' E 001°52'0 0.0
2017-Feb-21 01:33N 50°58' E 001°52'0 0.0
2017-Feb-21 00:34N 50°58' E 001°52'0 0.0
2017-Feb-20 23:33N 50°58' E 001°52'0 0.0
2017-Feb-20 22:33N 50°58' E 001°52'0 0.0
2017-Feb-20 21:34N 50°58' E 001°52'0 0.4
2017-Feb-20 20:33N 50°58' E 001°51'1717.5
2017-Feb-20 19:34N 51°06' E 001°26'4 4.1
2017-Feb-20 18:33N 51°07' E 001°20'1212.1
2017-Feb-20 17:33N 51°03' E 001°38'10 9.6
2017-Feb-20 16:33N 50°58' E 001°51'5 5.1
2017-Feb-20 15:33N 50°58' E 001°43'1717.1
2017-Feb-20 14:33N 51°07' E 001°20'2 1.9
2017-Feb-20 13:33N 51°07' E 001°23'1918.8
2017-Feb-20 12:33N 50°58' E 001°50'1 0.9
2017-Feb-20 11:33N 50°58' E 001°51'1616.1
2017-Feb-20 10:33N 51°04' E 001°27'6 5.5
2017-Feb-20 09:33N 51°07' E 001°20'1010.5
2017-Feb-20 08:33N 51°03' E 001°36'1111.5
2017-Feb-20 07:33N 50°58' E 001°52'0 0.0
2017-Feb-20 06:33N 50°58' E 001°52'0 0.0
2017-Feb-20 05:33N 50°58' E 001°52'0 0.0
2017-Feb-20 04:33N 50°58' E 001°52'0 0.0
2017-Feb-20 03:33N 50°58' E 001°52'0 0.0
2017-Feb-20 02:33N 50°58' E 001°52'0 0.0
2017-Feb-20 01:33N 50°58' E 001°52'0 0.0
2017-Feb-20 00:33N 50°58' E 001°52'0 0.0
2017-Feb-19 23:33N 50°58' E 001°52'0 0.0
2017-Feb-19 22:33N 50°58' E 001°52'0 0.0
2017-Feb-19 21:33N 50°58' E 001°52'0 0.0
2017-Feb-19 20:33N 50°58' E 001°52'0 0.0
2017-Feb-19 19:33N 50°58' E 001°52'0 0.0
2017-Feb-19 18:33N 50°58' E 001°52'  

Dump ship's entire track history